createdAt,value
2023-04-16T00:00:19.459Z,94803.00
2023-04-16T00:01:19.477Z,94807.00
2023-04-16T00:02:19.616Z,94805.00
2023-04-16T00:03:19.695Z,94809.00
2023-04-16T00:04:19.650Z,94809.00
2023-04-16T00:05:19.606Z,94807.00
2023-04-16T00:06:19.559Z,94809.00
2023-04-16T00:07:19.567Z,94811.00
2023-04-16T00:08:19.568Z,94813.00
2023-04-16T00:09:19.576Z,94813.00
2023-04-16T00:10:19.611Z,94813.00
2023-04-16T00:11:19.612Z,94809.00
2023-04-16T00:12:19.614Z,94811.00
2023-04-16T00:13:19.607Z,94813.00
2023-04-16T00:14:19.833Z,94807.00
2023-04-16T00:15:19.613Z,94807.00
2023-04-16T00:16:19.675Z,94805.00
2023-04-16T00:17:19.696Z,94807.00
2023-04-16T00:18:19.663Z,94807.00
2023-04-16T00:19:19.733Z,94807.00
2023-04-16T00:20:19.702Z,94809.00
2023-04-16T00:21:19.732Z,94809.00
2023-04-16T00:22:19.744Z,94807.00
2023-04-16T00:23:19.756Z,94809.00
2023-04-16T00:24:19.754Z,94809.00
2023-04-16T00:25:19.788Z,94807.00
2023-04-16T00:26:19.789Z,94809.00
2023-04-16T00:27:19.792Z,94813.00
2023-04-16T00:28:19.784Z,94811.00
2023-04-16T00:29:19.802Z,94811.00
2023-04-16T00:30:19.845Z,94809.00
2023-04-16T00:31:19.897Z,94813.00
2023-04-16T00:32:19.870Z,94813.00
2023-04-16T00:33:19.878Z,94811.00
2023-04-16T00:34:19.871Z,94813.00
2023-04-16T00:35:19.878Z,94814.00
2023-04-16T00:36:19.875Z,94811.00
2023-04-16T00:37:19.914Z,94813.00
2023-04-16T00:38:19.901Z,94814.00
2023-04-16T00:39:19.913Z,94813.00
2023-04-16T00:40:19.917Z,94814.00
2023-04-16T00:41:19.951Z,94813.00
2023-04-16T00:42:19.935Z,94814.00
2023-04-16T00:43:19.935Z,94813.00
2023-04-16T00:44:19.968Z,94814.00
2023-04-16T00:45:20.001Z,94814.00
2023-04-16T00:46:20.086Z,94816.00
2023-04-16T00:47:20.061Z,94814.00
2023-04-16T00:48:20.012Z,94818.00
2023-04-16T00:49:20.035Z,94816.00
2023-04-16T00:50:20.046Z,94818.00
2023-04-16T00:51:20.061Z,94820.00
2023-04-16T00:52:20.069Z,94816.00
2023-04-16T00:53:20.090Z,94816.00
2023-04-16T00:54:20.105Z,94818.00
2023-04-16T00:55:20.115Z,94820.00
2023-04-16T00:56:20.644Z,94816.00
2023-04-16T00:57:20.161Z,94818.00
2023-04-16T00:58:20.135Z,94816.00
2023-04-16T00:59:20.181Z,94816.00
2023-04-16T01:00:20.159Z,94818.00
2023-04-16T01:01:20.192Z,94820.00
2023-04-16T01:02:20.242Z,94816.00
2023-04-16T01:03:20.329Z,94820.00
2023-04-16T01:04:20.302Z,94820.00
2023-04-16T01:05:20.194Z,94820.00
2023-04-16T01:06:20.270Z,94816.00
2023-04-16T01:07:20.270Z,94814.00
2023-04-16T01:08:20.235Z,94816.00
2023-04-16T01:09:20.238Z,94814.00
2023-04-16T01:10:20.285Z,94814.00
2023-04-16T01:11:20.264Z,94813.00
2023-04-16T01:12:20.317Z,94816.00
2023-04-16T01:13:20.300Z,94814.00
2023-04-16T01:14:20.286Z,94814.00
2023-04-16T01:15:20.305Z,94814.00
2023-04-16T01:16:20.421Z,94814.00
2023-04-16T01:17:20.349Z,94816.00
2023-04-16T01:18:20.354Z,94814.00
2023-04-16T01:19:20.369Z,94816.00
2023-04-16T01:20:20.386Z,94814.00
2023-04-16T01:21:20.420Z,94818.00
2023-04-16T01:22:20.375Z,94816.00
2023-04-16T01:23:20.375Z,94814.00
2023-04-16T01:24:20.394Z,94816.00
2023-04-16T01:25:20.407Z,94818.00
2023-04-16T01:26:20.419Z,94816.00
2023-04-16T01:27:20.421Z,94820.00
2023-04-16T01:28:20.386Z,94820.00
2023-04-16T01:29:20.398Z,94820.00
2023-04-16T01:30:20.440Z,94822.00
2023-04-16T01:31:20.493Z,94824.00
2023-04-16T01:32:20.469Z,94822.00
2023-04-16T01:33:20.464Z,94822.00
2023-04-16T01:34:20.469Z,94824.00
2023-04-16T01:35:20.510Z,94824.00
2023-04-16T01:36:20.556Z,94824.00
2023-04-16T01:37:20.480Z,94826.00
2023-04-16T01:38:20.509Z,94824.00
2023-04-16T01:39:20.516Z,94822.00
2023-04-16T01:40:20.539Z,94826.00
2023-04-16T01:41:20.559Z,94826.00
2023-04-16T01:42:20.540Z,94826.00
2023-04-16T01:43:20.538Z,94826.00
2023-04-16T01:44:20.581Z,94828.00
2023-04-16T01:45:20.578Z,94824.00
2023-04-16T01:46:20.661Z,94828.00
2023-04-16T01:47:20.618Z,94830.00
2023-04-16T01:48:20.637Z,94830.00
2023-04-16T01:49:20.662Z,94830.00
2023-04-16T01:50:20.628Z,94828.00
2023-04-16T01:51:20.636Z,94834.00
2023-04-16T01:52:20.645Z,94834.00
2023-04-16T01:53:20.682Z,94832.00
2023-04-16T01:54:20.674Z,94836.00
2023-04-16T01:55:20.671Z,94836.00
2023-04-16T01:56:20.712Z,94836.00
2023-04-16T01:57:20.737Z,94836.00
2023-04-16T01:58:20.691Z,94836.00
2023-04-16T01:59:20.728Z,94836.00
2023-04-16T02:00:20.732Z,94838.00
2023-04-16T02:01:20.793Z,94838.00
2023-04-16T02:02:20.878Z,94840.00
2023-04-16T02:03:20.895Z,94840.00
2023-04-16T02:04:20.771Z,94838.00
2023-04-16T02:05:20.772Z,94838.00
2023-04-16T02:06:20.766Z,94836.00
2023-04-16T02:07:20.825Z,94838.00
2023-04-16T02:08:20.792Z,94836.00
2023-04-16T02:09:20.811Z,94836.00
2023-04-16T02:10:20.820Z,94836.00
2023-04-16T02:11:20.828Z,94838.00
2023-04-16T02:12:20.845Z,94840.00
2023-04-16T02:13:20.852Z,94836.00
2023-04-16T02:14:20.855Z,94838.00
2023-04-16T02:15:20.869Z,94836.00
2023-04-16T02:16:20.899Z,94834.00
2023-04-16T02:17:20.904Z,94838.00
2023-04-16T02:18:20.901Z,94836.00
2023-04-16T02:19:20.891Z,94836.00
2023-04-16T02:20:20.900Z,94840.00
2023-04-16T02:21:20.889Z,94840.00
2023-04-16T02:22:20.894Z,94842.00
2023-04-16T02:23:20.927Z,94844.00
2023-04-16T02:24:20.927Z,94844.00
2023-04-16T02:25:20.946Z,94844.00
2023-04-16T02:26:20.943Z,94846.00
2023-04-16T02:27:20.955Z,94846.00
2023-04-16T02:28:20.979Z,94846.00
2023-04-16T02:29:21.034Z,94844.00
2023-04-16T02:30:21.048Z,94844.00
2023-04-16T02:31:21.051Z,94844.00
2023-04-16T02:32:21.082Z,94842.00
2023-04-16T02:33:21.039Z,94846.00
2023-04-16T02:34:21.086Z,94846.00
2023-04-16T02:35:21.107Z,94844.00
2023-04-16T02:36:21.098Z,94848.00
2023-04-16T02:37:21.127Z,94850.00
2023-04-16T02:38:21.141Z,94850.00
2023-04-16T02:39:21.121Z,94846.00
2023-04-16T02:40:21.147Z,94850.00
2023-04-16T02:41:21.126Z,94850.00
2023-04-16T02:42:21.159Z,94852.00
2023-04-16T02:43:21.171Z,94850.00
2023-04-16T02:44:21.191Z,94850.00
2023-04-16T02:45:21.163Z,94853.00
2023-04-16T02:46:21.262Z,94853.00
2023-04-16T02:47:21.215Z,94853.00
2023-04-16T02:48:21.251Z,94853.00
2023-04-16T02:49:21.245Z,94853.00
2023-04-16T02:50:21.287Z,94850.00
2023-04-16T02:51:21.221Z,94850.00
2023-04-16T02:52:21.250Z,94848.00
2023-04-16T02:53:21.253Z,94853.00
2023-04-16T02:54:21.260Z,94853.00
2023-04-16T02:55:21.264Z,94852.00
2023-04-16T02:56:21.248Z,94857.00
2023-04-16T02:57:21.270Z,94855.00
2023-04-16T02:58:21.312Z,94855.00
2023-04-16T02:59:21.404Z,94857.00
2023-04-16T03:00:21.292Z,94857.00
2023-04-16T03:01:21.416Z,94857.00
2023-04-16T03:02:21.356Z,94865.00
2023-04-16T03:03:21.432Z,94863.00
2023-04-16T03:04:21.447Z,94863.00
2023-04-16T03:05:21.358Z,94863.00
2023-04-16T03:06:21.375Z,94865.00
2023-04-16T03:07:21.417Z,94867.00
2023-04-16T03:08:21.412Z,94867.00
2023-04-16T03:09:21.427Z,94867.00
2023-04-16T03:10:21.452Z,94869.00
2023-04-16T03:11:21.441Z,94869.00
2023-04-16T03:12:21.454Z,94869.00
2023-04-16T03:13:21.441Z,94867.00
2023-04-16T03:14:21.485Z,94869.00
2023-04-16T03:15:21.504Z,94871.00
2023-04-16T03:16:21.554Z,94871.00
2023-04-16T03:17:21.568Z,94871.00
2023-04-16T03:18:21.505Z,94873.00
2023-04-16T03:19:21.516Z,94873.00
2023-04-16T03:20:21.574Z,94873.00
2023-04-16T03:21:21.558Z,94873.00
2023-04-16T03:22:21.523Z,94873.00
2023-04-16T03:23:21.574Z,94873.00
2023-04-16T03:24:21.582Z,94875.00
2023-04-16T03:25:21.584Z,94871.00
2023-04-16T03:26:21.568Z,94875.00
2023-04-16T03:27:21.554Z,94873.00
2023-04-16T03:28:21.595Z,94873.00
2023-04-16T03:29:21.605Z,94869.00
2023-04-16T03:30:21.618Z,94869.00
2023-04-16T03:31:21.668Z,94867.00
2023-04-16T03:32:21.728Z,94869.00
2023-04-16T03:33:21.646Z,94867.00
2023-04-16T03:34:21.904Z,94865.00
2023-04-16T03:35:21.672Z,94865.00
2023-04-16T03:36:21.652Z,94865.00
2023-04-16T03:37:21.674Z,94867.00
2023-04-16T03:38:21.692Z,94867.00
2023-04-16T03:39:21.695Z,94869.00
2023-04-16T03:40:21.703Z,94869.00
2023-04-16T03:41:21.708Z,94871.00
2023-04-16T03:42:21.688Z,94871.00
2023-04-16T03:43:21.696Z,94873.00
2023-04-16T03:44:21.739Z,94871.00
2023-04-16T03:45:21.732Z,94873.00
2023-04-16T03:46:21.800Z,94875.00
2023-04-16T03:47:21.774Z,94873.00
2023-04-16T03:48:21.766Z,94873.00
2023-04-16T03:49:21.785Z,94875.00
2023-04-16T03:50:21.808Z,94877.00
2023-04-16T03:51:21.806Z,94875.00
2023-04-16T03:52:21.811Z,94879.00
2023-04-16T03:53:21.808Z,94877.00
2023-04-16T03:54:23.011Z,94879.00
2023-04-16T03:55:21.814Z,94879.00
2023-04-16T03:56:21.846Z,94881.00
2023-04-16T03:57:21.847Z,94879.00
2023-04-16T03:58:21.864Z,94881.00
2023-04-16T03:59:21.892Z,94881.00
2023-04-16T04:00:21.870Z,94881.00
2023-04-16T04:01:21.910Z,94881.00
2023-04-16T04:02:22.026Z,94881.00
2023-04-16T04:03:22.164Z,94881.00
2023-04-16T04:04:22.060Z,94881.00
2023-04-16T04:05:21.933Z,94881.00
2023-04-16T04:06:21.950Z,94883.00
2023-04-16T04:07:22.897Z,94883.00
2023-04-16T04:08:21.981Z,94883.00
2023-04-16T04:09:21.977Z,94885.00
2023-04-16T04:10:21.982Z,94887.00
2023-04-16T04:11:21.968Z,94889.00
2023-04-16T04:12:22.007Z,94889.00
2023-04-16T04:13:22.019Z,94889.00
2023-04-16T04:14:22.000Z,94891.00
2023-04-16T04:15:21.999Z,94891.00
2023-04-16T04:16:22.089Z,94893.00
2023-04-16T04:17:22.100Z,94893.00
2023-04-16T04:18:22.025Z,94895.00
2023-04-16T04:19:22.035Z,94893.00
2023-04-16T04:20:22.054Z,94895.00
2023-04-16T04:21:22.058Z,94895.00
2023-04-16T04:22:22.062Z,94895.00
2023-04-16T04:23:22.035Z,94899.00
2023-04-16T04:24:22.083Z,94899.00
2023-04-16T04:25:22.077Z,94900.00
2023-04-16T04:26:22.108Z,94900.00
2023-04-16T04:27:22.919Z,94900.00
2023-04-16T04:28:22.112Z,94902.00
2023-04-16T04:29:22.144Z,94902.00
2023-04-16T04:30:22.135Z,94902.00
2023-04-16T04:31:22.187Z,94904.00
2023-04-16T04:32:22.167Z,94902.00
2023-04-16T04:33:22.160Z,94904.00
2023-04-16T04:34:22.168Z,94906.00
2023-04-16T04:35:22.178Z,94906.00
2023-04-16T04:36:22.162Z,94908.00
2023-04-16T04:37:22.162Z,94910.00
2023-04-16T04:38:22.218Z,94912.00
2023-04-16T04:39:22.212Z,94912.00
2023-04-16T04:40:22.227Z,94914.00
2023-04-16T04:41:22.242Z,94916.00
2023-04-16T04:42:22.229Z,94916.00
2023-04-16T04:43:22.196Z,94918.00
2023-04-16T04:44:22.221Z,94918.00
2023-04-16T04:45:22.215Z,94920.00
2023-04-16T04:46:22.319Z,94922.00
2023-04-16T04:47:22.239Z,94922.00
2023-04-16T04:48:22.216Z,94922.00
2023-04-16T04:49:22.245Z,94924.00
2023-04-16T04:50:22.273Z,94924.00
2023-04-16T04:51:22.931Z,94926.00
2023-04-16T04:52:22.266Z,94926.00
2023-04-16T04:53:22.308Z,94928.00
2023-04-16T04:54:22.296Z,94928.00
2023-04-16T04:55:22.284Z,94928.00
2023-04-16T04:56:22.324Z,94928.00
2023-04-16T04:57:22.282Z,94928.00
2023-04-16T04:58:22.356Z,94928.00
2023-04-16T04:59:22.332Z,94930.00
2023-04-16T05:00:22.333Z,94930.00
2023-04-16T05:01:22.411Z,94930.00
2023-04-16T05:02:22.433Z,94930.00
2023-04-16T05:03:22.486Z,94928.00
2023-04-16T05:04:22.399Z,94930.00
2023-04-16T05:05:22.457Z,94928.00
2023-04-16T05:06:22.427Z,94928.00
2023-04-16T05:07:22.399Z,94928.00
2023-04-16T05:08:22.448Z,94938.00
2023-04-16T05:09:22.416Z,94938.00
2023-04-16T05:10:22.460Z,94940.00
2023-04-16T05:11:22.486Z,94940.00
2023-04-16T05:12:22.481Z,94942.00
2023-04-16T05:13:22.501Z,94944.00
2023-04-16T05:14:22.525Z,94942.00
2023-04-16T05:15:22.522Z,94942.00
2023-04-16T05:16:22.601Z,94944.00
2023-04-16T05:17:22.548Z,94945.00
2023-04-16T05:18:22.547Z,94945.00
2023-04-16T05:19:22.583Z,94947.00
2023-04-16T05:20:22.556Z,94947.00
2023-04-16T05:21:22.576Z,94949.00
2023-04-16T05:22:22.583Z,94953.00
2023-04-16T05:23:22.589Z,94951.00
2023-04-16T05:24:22.615Z,94951.00
2023-04-16T05:25:22.650Z,94953.00
2023-04-16T05:26:22.663Z,94953.00
2023-04-16T05:27:22.660Z,94955.00
2023-04-16T05:28:22.673Z,94953.00
2023-04-16T05:29:22.674Z,94955.00
2023-04-16T05:30:22.661Z,94957.00
2023-04-16T05:31:22.725Z,94957.00
2023-04-16T05:32:22.753Z,94959.00
2023-04-16T05:33:22.694Z,94959.00
2023-04-16T05:34:22.733Z,94959.00
2023-04-16T05:35:22.722Z,94961.00
2023-04-16T05:36:22.743Z,94965.00
2023-04-16T05:37:22.726Z,94967.00
2023-04-16T05:38:22.710Z,94967.00
2023-04-16T05:39:22.739Z,94969.00
2023-04-16T05:40:22.736Z,94973.00
2023-04-16T05:41:22.757Z,94971.00
2023-04-16T05:42:22.754Z,94973.00
2023-04-16T05:43:22.747Z,94971.00
2023-04-16T05:44:22.781Z,94971.00
2023-04-16T05:45:22.827Z,94971.00
2023-04-16T05:46:22.833Z,94973.00
2023-04-16T05:47:22.827Z,94973.00
2023-04-16T05:48:22.837Z,94977.00
2023-04-16T05:49:22.838Z,94975.00
2023-04-16T05:50:22.843Z,94975.00
2023-04-16T05:51:22.854Z,94977.00
2023-04-16T05:52:22.861Z,94979.00
2023-04-16T05:53:22.860Z,94977.00
2023-04-16T05:54:22.861Z,94981.00
2023-04-16T05:55:22.894Z,94983.00
2023-04-16T05:56:22.891Z,94979.00
2023-04-16T05:57:22.908Z,94985.00
2023-04-16T05:58:22.921Z,94985.00
2023-04-16T05:59:22.937Z,94987.00
2023-04-16T06:00:22.949Z,94989.00
2023-04-16T06:01:22.958Z,94987.00
2023-04-16T06:02:23.076Z,94989.00
2023-04-16T06:03:23.033Z,94991.00
2023-04-16T06:04:22.966Z,94991.00
2023-04-16T06:05:22.989Z,94991.00
2023-04-16T06:06:22.983Z,94992.00
2023-04-16T06:07:22.989Z,94994.00
2023-04-16T06:08:22.981Z,94994.00
2023-04-16T06:09:22.986Z,94994.00
2023-04-16T06:10:23.002Z,94994.00
2023-04-16T06:11:22.971Z,94996.00
2023-04-16T06:12:23.007Z,94994.00
2023-04-16T06:13:23.020Z,94994.00
2023-04-16T06:14:23.039Z,94996.00
2023-04-16T06:15:23.049Z,94996.00
2023-04-16T06:16:23.043Z,94994.00
2023-04-16T06:17:23.145Z,94996.00
2023-04-16T06:18:23.082Z,94998.00
2023-04-16T06:19:23.113Z,94996.00
2023-04-16T06:20:23.110Z,94998.00
2023-04-16T06:21:23.149Z,94998.00
2023-04-16T06:22:23.136Z,95000.00
2023-04-16T06:23:23.136Z,95000.00
2023-04-16T06:24:23.189Z,95000.00
2023-04-16T06:25:23.213Z,95000.00
2023-04-16T06:26:23.155Z,94998.00
2023-04-16T06:27:23.225Z,94998.00
2023-04-16T06:28:23.216Z,94998.00
2023-04-16T06:29:33.566Z,94998.00
2023-04-16T06:30:24.194Z,94998.00
2023-04-16T06:31:23.236Z,95000.00
2023-04-16T06:32:23.253Z,95000.00
2023-04-16T06:33:23.174Z,95000.00
2023-04-16T06:34:23.203Z,95002.00
2023-04-16T06:35:23.217Z,95000.00
2023-04-16T06:36:23.177Z,95002.00
2023-04-16T06:37:23.162Z,95002.00
2023-04-16T06:38:23.151Z,95004.00
2023-04-16T06:39:23.128Z,95002.00
2023-04-16T06:40:23.141Z,95004.00
2023-04-16T06:41:23.123Z,95002.00
2023-04-16T06:42:23.145Z,95000.00
2023-04-16T06:43:23.136Z,94998.00
2023-04-16T06:44:23.128Z,95000.00
2023-04-16T06:45:23.105Z,94998.00
2023-04-16T06:46:23.134Z,95000.00
2023-04-16T06:47:23.144Z,95000.00
2023-04-16T06:48:23.098Z,95000.00
2023-04-16T06:49:23.186Z,94998.00
2023-04-16T06:50:23.087Z,94998.00
2023-04-16T06:51:23.041Z,94996.00
2023-04-16T06:52:23.047Z,94994.00
2023-04-16T06:53:23.092Z,94996.00
2023-04-16T06:54:23.054Z,94996.00
2023-04-16T06:55:23.056Z,94994.00
2023-04-16T06:56:23.030Z,94996.00
2023-04-16T06:57:23.037Z,95000.00
2023-04-16T06:58:23.033Z,94998.00
2023-04-16T06:59:23.034Z,94998.00
2023-04-16T07:00:22.980Z,94996.00
2023-04-16T07:01:23.057Z,94996.00
2023-04-16T07:02:23.127Z,94994.00
2023-04-16T07:03:23.090Z,94994.00
2023-04-16T07:04:23.022Z,94998.00
2023-04-16T07:05:23.058Z,94994.00
2023-04-16T07:06:23.067Z,95000.00
2023-04-16T07:07:23.074Z,95002.00
2023-04-16T07:08:23.027Z,95002.00
2023-04-16T07:09:23.044Z,95004.00
2023-04-16T07:10:23.068Z,95004.00
2023-04-16T07:11:23.059Z,95004.00
2023-04-16T07:12:23.198Z,95006.00
2023-04-16T07:13:23.079Z,95008.00
2023-04-16T07:14:23.066Z,95008.00
2023-04-16T07:15:23.132Z,95008.00
2023-04-16T07:16:23.138Z,95006.00
2023-04-16T07:17:23.132Z,95006.00
2023-04-16T07:18:23.101Z,95006.00
2023-04-16T07:19:23.134Z,95006.00
2023-04-16T07:20:23.145Z,95006.00
2023-04-16T07:21:23.132Z,95006.00
2023-04-16T07:22:23.160Z,95008.00
2023-04-16T07:23:23.161Z,95008.00
2023-04-16T07:24:23.148Z,95008.00
2023-04-16T07:25:23.180Z,95010.00
2023-04-16T07:26:23.216Z,95010.00
2023-04-16T07:27:23.218Z,95010.00
2023-04-16T07:28:23.194Z,95010.00
2023-04-16T07:29:23.198Z,95012.00
2023-04-16T07:30:23.205Z,95012.00
2023-04-16T07:31:23.246Z,95014.00
2023-04-16T07:32:23.296Z,95016.00
2023-04-16T07:33:23.221Z,95020.00
2023-04-16T07:34:23.227Z,95018.00
2023-04-16T07:35:23.262Z,95020.00
2023-04-16T07:36:23.250Z,95020.00
2023-04-16T07:37:23.275Z,95022.00
2023-04-16T07:38:23.262Z,95020.00
2023-04-16T07:39:23.295Z,95022.00
2023-04-16T07:40:23.266Z,95024.00
2023-04-16T07:41:23.279Z,95026.00
2023-04-16T07:42:23.276Z,95026.00
2023-04-16T07:43:23.293Z,95026.00
2023-04-16T07:44:23.292Z,95026.00
2023-04-16T07:45:23.335Z,95030.00
2023-04-16T07:46:24.677Z,95028.00
2023-04-16T07:47:23.471Z,95032.00
2023-04-16T07:48:23.350Z,95030.00
2023-04-16T07:49:23.369Z,95028.00
2023-04-16T07:50:23.414Z,95032.00
2023-04-16T07:51:23.373Z,95032.00
2023-04-16T07:52:23.363Z,95032.00
2023-04-16T07:53:23.383Z,95034.00
2023-04-16T07:54:23.405Z,95032.00
2023-04-16T07:55:23.411Z,95036.00
2023-04-16T07:56:23.423Z,95034.00
2023-04-16T07:57:23.408Z,95034.00
2023-04-16T07:58:23.434Z,95034.00
2023-04-16T07:59:24.525Z,95034.00
2023-04-16T08:00:23.434Z,95034.00
2023-04-16T08:01:23.449Z,95032.00
2023-04-16T08:02:23.673Z,95030.00
2023-04-16T08:03:23.726Z,95036.00
2023-04-16T08:04:23.625Z,95030.00
2023-04-16T08:05:23.679Z,95032.00
2023-04-16T08:06:23.485Z,95038.00
2023-04-16T08:07:23.478Z,95038.00
2023-04-16T08:08:23.501Z,95039.00
2023-04-16T08:09:23.612Z,95039.00
2023-04-16T08:10:23.500Z,95041.00
2023-04-16T08:11:23.527Z,95043.00
2023-04-16T08:12:23.515Z,95043.00
2023-04-16T08:13:23.528Z,95045.00
2023-04-16T08:14:23.526Z,95045.00
2023-04-16T08:15:23.546Z,95045.00
2023-04-16T08:16:23.576Z,95045.00
2023-04-16T08:17:23.582Z,95045.00
2023-04-16T08:18:23.502Z,95047.00
2023-04-16T08:19:23.530Z,95051.00
2023-04-16T08:20:23.585Z,95051.00
2023-04-16T08:21:23.533Z,95053.00
2023-04-16T08:22:23.582Z,95053.00
2023-04-16T08:23:23.561Z,95053.00
2023-04-16T08:24:23.565Z,95055.00
2023-04-16T08:25:23.582Z,95057.00
2023-04-16T08:26:23.523Z,95059.00
2023-04-16T08:27:23.573Z,95057.00
2023-04-16T08:28:23.566Z,95057.00
2023-04-16T08:29:23.553Z,95059.00
2023-04-16T08:30:23.554Z,95057.00
2023-04-16T08:31:23.561Z,95061.00
2023-04-16T08:32:23.581Z,95057.00
2023-04-16T08:33:23.549Z,95059.00
2023-04-16T08:34:23.550Z,95059.00
2023-04-16T08:35:23.563Z,95063.00
2023-04-16T08:36:23.584Z,95063.00
2023-04-16T08:37:23.554Z,95065.00
2023-04-16T08:38:23.552Z,95065.00
2023-04-16T08:39:23.601Z,95065.00
2023-04-16T08:40:23.551Z,95065.00
2023-04-16T08:41:23.588Z,95067.00
2023-04-16T08:42:23.589Z,95067.00
2023-04-16T08:43:23.571Z,95069.00
2023-04-16T08:44:23.572Z,95067.00
2023-04-16T08:45:23.579Z,95067.00
2023-04-16T08:46:23.631Z,95067.00
2023-04-16T08:47:23.626Z,95067.00
2023-04-16T08:48:23.593Z,95067.00
2023-04-16T08:49:23.557Z,95067.00
2023-04-16T08:50:23.598Z,95071.00
2023-04-16T08:51:23.590Z,95071.00
2023-04-16T08:52:23.569Z,95069.00
2023-04-16T08:53:23.589Z,95069.00
2023-04-16T08:54:23.597Z,95073.00
2023-04-16T08:55:23.589Z,95073.00
2023-04-16T08:56:23.624Z,95069.00
2023-04-16T08:57:23.619Z,95069.00
2023-04-16T08:58:23.622Z,95069.00
2023-04-16T08:59:23.599Z,95075.00
2023-04-16T09:00:23.597Z,95073.00
2023-04-16T09:01:23.673Z,95071.00
2023-04-16T09:02:23.762Z,95071.00
2023-04-16T09:03:23.763Z,95075.00
2023-04-16T09:04:23.790Z,95073.00
2023-04-16T09:05:23.631Z,95075.00
2023-04-16T09:06:23.660Z,95071.00
2023-04-16T09:07:23.629Z,95073.00
2023-04-16T09:08:23.633Z,95073.00
2023-04-16T09:09:23.632Z,95075.00
2023-04-16T09:10:23.644Z,95073.00
2023-04-16T09:11:23.645Z,95073.00
2023-04-16T09:12:23.646Z,95073.00
2023-04-16T09:13:23.692Z,95077.00
2023-04-16T09:14:23.646Z,95078.00
2023-04-16T09:15:23.716Z,95077.00
2023-04-16T09:16:23.672Z,95075.00
2023-04-16T09:17:23.710Z,95077.00
2023-04-16T09:18:23.636Z,95075.00
2023-04-16T09:19:23.649Z,95073.00
2023-04-16T09:20:23.662Z,95075.00
2023-04-16T09:21:24.114Z,95077.00
2023-04-16T09:22:23.639Z,95075.00
2023-04-16T09:23:23.641Z,95078.00
2023-04-16T09:24:23.646Z,95075.00
2023-04-16T09:25:23.697Z,95077.00
2023-04-16T09:26:23.630Z,95078.00
2023-04-16T09:27:25.419Z,95078.00
2023-04-16T09:28:23.669Z,95078.00
2023-04-16T09:29:23.665Z,95077.00
2023-04-16T09:30:23.682Z,95078.00
2023-04-16T09:31:23.696Z,95078.00
2023-04-16T09:32:23.663Z,95078.00
2023-04-16T09:33:23.662Z,95078.00
2023-04-16T09:34:23.658Z,95078.00
2023-04-16T09:35:23.634Z,95078.00
2023-04-16T09:36:23.679Z,95075.00
2023-04-16T09:37:23.652Z,95075.00
2023-04-16T09:38:23.660Z,95077.00
2023-04-16T09:39:23.615Z,95077.00
2023-04-16T09:40:23.632Z,95077.00
2023-04-16T09:41:23.640Z,95075.00
2023-04-16T09:42:23.648Z,95077.00
2023-04-16T09:43:23.652Z,95075.00
2023-04-16T09:44:23.638Z,95075.00
2023-04-16T09:45:23.621Z,95073.00
2023-04-16T09:46:23.729Z,95071.00
2023-04-16T09:47:23.667Z,95071.00
2023-04-16T09:48:23.671Z,95069.00
2023-04-16T09:49:23.641Z,95073.00
2023-04-16T09:50:23.638Z,95071.00
2023-04-16T09:51:23.669Z,95073.00
2023-04-16T09:52:23.644Z,95071.00
2023-04-16T09:53:23.636Z,95073.00
2023-04-16T09:54:23.637Z,95073.00
2023-04-16T09:55:23.646Z,95075.00
2023-04-16T09:56:23.668Z,95071.00
2023-04-16T09:57:23.628Z,95071.00
2023-04-16T09:58:23.639Z,95071.00
2023-04-16T09:59:23.651Z,95071.00
2023-04-16T10:00:23.674Z,95071.00
2023-04-16T10:01:23.686Z,95071.00
2023-04-16T10:02:23.754Z,95067.00
2023-04-16T10:03:23.680Z,95069.00
2023-04-16T10:04:23.724Z,95073.00
2023-04-16T10:05:23.662Z,95067.00
2023-04-16T10:06:23.632Z,95073.00
2023-04-16T10:07:23.632Z,95069.00
2023-04-16T10:08:23.654Z,95069.00
2023-04-16T10:09:23.633Z,95067.00
2023-04-16T10:10:23.642Z,95065.00
2023-04-16T10:11:23.642Z,95065.00
2023-04-16T10:12:23.650Z,95069.00
2023-04-16T10:13:23.646Z,95071.00
2023-04-16T10:14:23.654Z,95067.00
2023-04-16T10:15:23.689Z,95069.00
2023-04-16T10:16:23.743Z,95069.00
2023-04-16T10:17:23.970Z,95065.00
2023-04-16T10:18:23.634Z,95071.00
2023-04-16T10:19:23.675Z,95071.00
2023-04-16T10:20:23.686Z,95063.00
2023-04-16T10:21:23.664Z,95067.00
2023-04-16T10:22:23.673Z,95069.00
2023-04-16T10:23:23.705Z,95065.00
2023-04-16T10:24:23.645Z,95059.00
2023-04-16T10:25:23.678Z,95063.00
2023-04-16T10:26:23.646Z,95063.00
2023-04-16T10:27:23.658Z,95063.00
2023-04-16T10:28:23.685Z,95065.00
2023-04-16T10:29:23.665Z,95065.00
2023-04-16T10:30:23.673Z,95063.00
2023-04-16T10:31:23.737Z,95063.00
2023-04-16T10:32:23.699Z,95065.00
2023-04-16T10:33:23.649Z,95063.00
2023-04-16T10:34:23.687Z,95065.00
2023-04-16T10:35:23.666Z,95063.00
2023-04-16T10:36:23.654Z,95067.00
2023-04-16T10:37:23.659Z,95063.00
2023-04-16T10:38:23.657Z,95063.00
2023-04-16T10:39:23.642Z,95067.00
2023-04-16T10:40:23.677Z,95065.00
2023-04-16T10:41:23.700Z,95069.00
2023-04-16T10:42:23.649Z,95063.00
2023-04-16T10:43:23.633Z,95067.00
2023-04-16T10:44:23.633Z,95065.00
2023-04-16T10:45:23.634Z,95065.00
2023-04-16T10:46:23.704Z,95065.00
2023-04-16T10:47:23.666Z,95065.00
2023-04-16T10:48:23.620Z,95063.00
2023-04-16T10:49:23.615Z,95065.00
2023-04-16T10:50:23.613Z,95065.00
2023-04-16T10:51:23.584Z,95063.00
2023-04-16T10:52:23.630Z,95061.00
2023-04-16T10:53:23.603Z,95063.00
2023-04-16T10:54:23.583Z,95063.00
2023-04-16T10:55:23.608Z,95061.00
2023-04-16T10:56:23.614Z,95065.00
2023-04-16T10:57:23.587Z,95063.00
2023-04-16T10:58:23.596Z,95063.00
2023-04-16T10:59:23.573Z,95063.00
2023-04-16T11:00:23.566Z,95063.00
2023-04-16T11:01:23.588Z,95059.00
2023-04-16T11:02:25.247Z,95061.00
2023-04-16T11:03:23.707Z,95063.00
2023-04-16T11:04:23.725Z,95059.00
2023-04-16T11:05:23.570Z,95059.00
2023-04-16T11:06:23.549Z,95061.00
2023-04-16T11:07:23.554Z,95059.00
2023-04-16T11:08:25.279Z,95059.00
2023-04-16T11:09:23.507Z,95061.00
2023-04-16T11:10:23.539Z,95059.00
2023-04-16T11:11:23.510Z,95059.00
2023-04-16T11:12:23.523Z,95057.00
2023-04-16T11:13:23.491Z,95057.00
2023-04-16T11:14:23.502Z,95059.00
2023-04-16T11:15:23.505Z,95059.00
2023-04-16T11:16:23.509Z,95059.00
2023-04-16T11:17:23.523Z,95061.00
2023-04-16T11:18:23.473Z,95059.00
2023-04-16T11:19:23.456Z,95059.00
2023-04-16T11:20:23.502Z,95059.00
2023-04-16T11:21:23.451Z,95061.00
2023-04-16T11:22:23.444Z,95061.00
2023-04-16T11:23:23.457Z,95061.00
2023-04-16T11:24:25.621Z,95061.00
2023-04-16T11:25:23.441Z,95059.00
2023-04-16T11:26:23.413Z,95057.00
2023-04-16T11:27:23.411Z,95061.00
2023-04-16T11:28:23.436Z,95061.00
2023-04-16T11:29:23.383Z,95061.00
2023-04-16T11:30:23.420Z,95063.00
2023-04-16T11:31:23.526Z,95065.00
2023-04-16T11:32:23.415Z,95063.00
2023-04-16T11:33:23.354Z,95065.00
2023-04-16T11:34:23.358Z,95061.00
2023-04-16T11:35:23.361Z,95065.00
2023-04-16T11:36:25.440Z,95063.00
2023-04-16T11:37:23.309Z,95061.00
2023-04-16T11:38:23.321Z,95065.00
2023-04-16T11:39:24.102Z,95063.00
2023-04-16T11:40:23.344Z,95063.00
2023-04-16T11:41:23.300Z,95061.00
2023-04-16T11:42:23.349Z,95063.00
2023-04-16T11:43:23.280Z,95063.00
2023-04-16T11:44:23.288Z,95063.00